createdAt,value
2022-12-23T00:00:40.286Z,98678.88
2022-12-23T00:05:41.931Z,98683.94
2022-12-23T00:10:43.926Z,98672.34
2022-12-23T00:15:45.528Z,98660.69
2022-12-23T00:20:47.140Z,98651.25
2022-12-23T00:25:48.767Z,98627.19
2022-12-23T00:30:55.374Z,98622.78
2022-12-23T00:35:57.261Z,98625.38
2022-12-23T00:41:17.396Z,98621.13
2022-12-23T00:46:19.147Z,98614.81
2022-12-23T00:51:20.786Z,98600.50
2022-12-23T00:56:22.410Z,98597.00
2022-12-23T01:01:42.596Z,98602.06
2022-12-23T01:06:44.287Z,98605.78
2022-12-23T01:11:45.890Z,98600.97
2022-12-23T01:16:47.920Z,98596.03
2022-12-23T01:21:49.583Z,98592.44
2022-12-23T01:26:51.184Z,98590.81
2022-12-23T01:31:52.950Z,98583.59
2022-12-23T01:36:54.625Z,98574.34
2022-12-23T01:42:14.761Z,98571.00
2022-12-23T01:47:31.881Z,98569.41
2022-12-23T01:52:40.420Z,98571.25
2022-12-23T01:57:43.746Z,98565.31
2022-12-23T02:03:08.416Z,98567.88
2022-12-23T02:08:28.819Z,98565.38
2022-12-23T02:14:23.340Z,98563.47
2022-12-23T02:19:39.943Z,98563.91
2022-12-23T02:25:04.905Z,98557.84
2022-12-23T02:30:40.090Z,98569.91
2022-12-23T02:36:17.604Z,98573.66
2022-12-23T02:41:35.328Z,98562.09
2022-12-23T02:46:46.264Z,98557.78
2022-12-23T02:51:53.695Z,98558.81
2022-12-23T02:56:57.808Z,98558.63
2022-12-23T03:02:01.018Z,98558.34
2022-12-23T03:07:07.482Z,98555.47
2022-12-23T03:12:28.618Z,98538.41
2022-12-23T03:17:42.361Z,98547.84
2022-12-23T03:22:57.125Z,98555.84
2022-12-23T03:28:19.385Z,98546.19
2022-12-23T03:33:31.791Z,98545.56
2022-12-23T03:38:37.869Z,98533.47
2022-12-23T03:43:50.954Z,98544.19
2022-12-23T03:48:58.189Z,98549.50
2022-12-23T03:54:03.448Z,98538.97
2022-12-23T03:59:28.316Z,98546.53
2022-12-23T04:05:03.310Z,98563.97
2022-12-23T04:10:05.832Z,98561.63
2022-12-23T04:15:12.861Z,98561.34
2022-12-23T04:20:15.387Z,98554.44
2022-12-23T04:25:17.545Z,98558.25
2022-12-23T04:30:19.279Z,98563.06
2022-12-23T04:35:21.312Z,98561.84
2022-12-23T04:40:23.004Z,98554.03
2022-12-23T04:45:24.616Z,98562.44
2022-12-23T04:50:26.262Z,98553.50
2022-12-23T04:55:27.862Z,98542.63
2022-12-23T05:00:34.007Z,98554.59
2022-12-23T05:05:43.988Z,98552.16
2022-12-23T05:10:45.697Z,98550.91
2022-12-23T05:15:51.349Z,98551.78
2022-12-23T05:20:53.062Z,98555.25
2022-12-23T05:25:54.928Z,98563.31
2022-12-23T05:31:06.910Z,98563.44
2022-12-23T05:36:09.733Z,98566.88
2022-12-23T05:41:11.483Z,98556.97
2022-12-23T05:46:13.113Z,98569.16
2022-12-23T05:51:14.757Z,98567.75
2022-12-23T05:56:16.374Z,98572.88
2022-12-23T06:01:17.972Z,98578.28
2022-12-23T06:06:19.590Z,98594.38
2022-12-23T06:11:21.391Z,98581.44
2022-12-23T06:16:23.217Z,98581.22
2022-12-23T06:21:27.677Z,98588.84
2022-12-23T06:26:29.344Z,98602.91
2022-12-23T06:31:30.948Z,98599.75
2022-12-23T06:36:32.596Z,98612.75
2022-12-23T06:41:34.214Z,98618.53
2022-12-23T06:46:35.893Z,98616.31
2022-12-23T06:51:37.504Z,98608.78
2022-12-23T06:56:39.387Z,98615.81
2022-12-23T07:01:41.168Z,98609.00
2022-12-23T07:06:42.827Z,98616.59
2022-12-23T07:11:44.448Z,98610.88
2022-12-23T07:16:46.409Z,98619.94
2022-12-23T07:21:48.092Z,98619.28
2022-12-23T07:26:50.672Z,98605.22
2022-12-23T07:31:53.225Z,98627.03
2022-12-23T07:36:55.949Z,98629.81
2022-12-23T07:42:24.915Z,98636.84
2022-12-23T07:47:19.169Z,98640.16
2022-12-23T07:52:20.797Z,98638.81
2022-12-23T07:57:22.547Z,98640.63
2022-12-23T08:02:25.427Z,98653.84
2022-12-23T08:07:27.457Z,98647.25
2022-12-23T08:12:29.073Z,98651.91
2022-12-23T08:17:30.884Z,98640.84
2022-12-23T08:22:32.678Z,98652.41
2022-12-23T08:27:35.797Z,98641.78
2022-12-23T08:32:37.412Z,98647.03
2022-12-23T08:37:39.041Z,98648.84
2022-12-23T08:42:40.700Z,98652.19
2022-12-23T08:47:42.348Z,98673.50
2022-12-23T08:52:44.020Z,98676.56
2022-12-23T08:57:45.628Z,98676.88
2022-12-23T09:02:47.574Z,98670.31
2022-12-23T09:07:49.441Z,98670.38
2022-12-23T09:12:51.266Z,98691.50
2022-12-23T09:17:52.894Z,98684.81
2022-12-23T09:22:54.507Z,98690.13
2022-12-23T09:27:56.251Z,98683.31
2022-12-23T09:32:57.863Z,98691.44
2022-12-23T09:37:59.447Z,98697.28
2022-12-23T09:43:28.309Z,98699.22
2022-12-23T09:48:35.381Z,98687.44
2022-12-23T09:54:01.738Z,98698.06
2022-12-23T09:59:14.607Z,98698.50
2022-12-23T10:04:28.718Z,98702.28
2022-12-23T10:09:38.863Z,98711.19
2022-12-23T10:14:41.379Z,98714.91
2022-12-23T10:19:48.386Z,98723.78
2022-12-23T10:24:50.640Z,98727.72
2022-12-23T10:29:52.381Z,98722.97
2022-12-23T10:35:15.643Z,98714.88
2022-12-23T10:40:45.454Z,98723.19
2022-12-23T10:45:56.197Z,98708.72
2022-12-23T10:51:03.923Z,98702.66
2022-12-23T10:56:07.468Z,98703.13
2022-12-23T11:01:18.622Z,98698.78
2022-12-23T11:06:30.236Z,98691.53
2022-12-23T11:12:00.523Z,98711.78
2022-12-23T11:17:03.207Z,98714.06
2022-12-23T11:22:04.832Z,98716.59
2022-12-23T11:27:11.746Z,98712.41
2022-12-23T11:32:26.407Z,98715.81
2022-12-23T11:37:36.725Z,98715.66
2022-12-23T11:42:41.547Z,98711.16
2022-12-23T11:47:43.796Z,98727.09
2022-12-23T11:52:51.885Z,98729.41
2022-12-23T11:57:54.157Z,98735.81
2022-12-23T12:03:00.181Z,98735.63
2022-12-23T12:08:07.120Z,98738.03
2022-12-23T12:13:26.025Z,98732.50
2022-12-23T12:18:28.389Z,98732.09
2022-12-23T12:23:45.325Z,98727.13
2022-12-23T12:28:53.482Z,98725.66
2022-12-23T12:34:12.977Z,98721.03
2022-12-23T12:39:31.046Z,98722.03
2022-12-23T12:45:12.323Z,98728.63
2022-12-23T12:50:18.323Z,98711.44
2022-12-23T12:55:26.165Z,98716.19
2022-12-23T13:00:28.601Z,98720.56
2022-12-23T13:05:36.255Z,98719.31
2022-12-23T13:10:50.110Z,98718.50
2022-12-23T13:16:26.322Z,98711.41
2022-12-23T13:21:48.429Z,98703.72
2022-12-23T13:26:57.034Z,98700.81
2022-12-23T13:32:15.117Z,98703.72
2022-12-23T13:37:17.089Z,98704.97
2022-12-23T13:42:34.368Z,98701.84
2022-12-23T13:48:11.840Z,98693.75
2022-12-23T13:53:26.805Z,98694.22
2022-12-23T13:58:31.342Z,98691.09
2022-12-23T14:03:35.725Z,98677.91
2022-12-23T14:08:42.848Z,98678.47
2022-12-23T14:13:58.349Z,98669.53
2022-12-23T14:19:36.019Z,98678.63
2022-12-23T14:25:02.244Z,98678.63
2022-12-23T14:30:16.543Z,98673.69
2022-12-23T14:35:26.763Z,98673.03
2022-12-23T14:40:37.365Z,98679.22
2022-12-23T14:45:43.387Z,98683.75
2022-12-23T14:50:57.688Z,98659.28
2022-12-23T14:56:11.564Z,98658.44
2022-12-23T15:01:42.747Z,98661.59
2022-12-23T15:06:47.909Z,98669.81
2022-12-23T15:11:50.245Z,98660.06
2022-12-23T15:16:51.924Z,98668.34
2022-12-23T15:22:19.863Z,98680.31
2022-12-23T15:27:28.699Z,98681.75
2022-12-23T15:32:31.618Z,98677.44
2022-12-23T15:37:33.907Z,98678.81
2022-12-23T15:42:37.056Z,98655.47
2022-12-23T15:47:39.473Z,98663.50
2022-12-23T15:52:43.094Z,98646.09
2022-12-23T15:57:50.423Z,98646.94
2022-12-23T16:03:03.371Z,98647.91
2022-12-23T16:08:16.399Z,98655.09
2022-12-23T16:13:20.163Z,98646.28
2022-12-23T16:18:28.562Z,98644.22
2022-12-23T16:23:35.117Z,98650.22
2022-12-23T16:28:43.120Z,98637.00
2022-12-23T16:33:47.513Z,98647.50
2022-12-23T16:38:51.416Z,98644.84
2022-12-23T16:43:53.332Z,98645.47
2022-12-23T16:49:00.872Z,98635.03
2022-12-23T16:54:02.537Z,98628.66
2022-12-23T16:59:04.867Z,98625.16
2022-12-23T17:04:07.223Z,98632.16
2022-12-23T17:09:10.463Z,98630.97
2022-12-23T17:14:24.295Z,98614.88
2022-12-23T17:19:29.055Z,98603.31
2022-12-23T17:24:31.514Z,98591.59
2022-12-23T17:29:33.352Z,98587.75
2022-12-23T17:34:35.021Z,98575.56
2022-12-23T17:39:36.661Z,98559.88
2022-12-23T17:44:38.263Z,98549.03
2022-12-23T17:49:40.141Z,98542.22
2022-12-23T17:54:42.094Z,98550.72
2022-12-23T17:59:47.726Z,98533.28
2022-12-23T18:04:50.171Z,98536.63
2022-12-23T18:09:52.872Z,98531.84
2022-12-23T18:14:55.549Z,98539.06
2022-12-23T18:19:57.254Z,98548.34
2022-12-23T18:24:59.652Z,98544.66
2022-12-23T18:30:01.364Z,98534.69
2022-12-23T18:35:03.143Z,98532.66
2022-12-23T18:40:06.936Z,98546.47
2022-12-23T18:45:23.532Z,98541.44
2022-12-23T18:50:26.439Z,98538.03
2022-12-23T18:55:30.394Z,98536.25
2022-12-23T19:00:33.636Z,98543.28
2022-12-23T19:05:35.234Z,98541.53
2022-12-23T19:10:36.835Z,98532.91
2022-12-23T19:15:40.525Z,98525.59
2022-12-23T19:20:43.670Z,98508.84
2022-12-23T19:25:52.449Z,98493.69
2022-12-23T19:30:56.401Z,98471.78
2022-12-23T19:35:58.116Z,98465.28
2022-12-23T19:40:59.759Z,98450.81
2022-12-23T19:46:04.035Z,98433.59
2022-12-23T19:51:08.997Z,98418.44
2022-12-23T19:56:15.804Z,98409.78
2022-12-23T20:01:20.082Z,98395.13
2022-12-23T20:06:27.618Z,98381.69
2022-12-23T20:11:32.631Z,98380.22
2022-12-23T20:16:35.778Z,98379.13
2022-12-23T20:21:37.815Z,98359.69
2022-12-23T20:26:39.544Z,98367.97
2022-12-23T20:31:41.789Z,98368.38
2022-12-23T20:36:43.712Z,98359.38
2022-12-23T20:41:45.477Z,98353.69
2022-12-23T20:46:47.184Z,98364.84
2022-12-23T20:51:48.879Z,98359.56
2022-12-23T20:56:50.489Z,98357.53
2022-12-23T21:01:52.269Z,98368.44
2022-12-23T21:06:54.005Z,98369.88
2022-12-23T21:11:55.727Z,98376.81
2022-12-23T21:16:57.403Z,98363.81
2022-12-23T21:21:59.036Z,98345.88
2022-12-23T21:27:00.665Z,98340.78
2022-12-23T21:32:02.312Z,98333.25
2022-12-23T21:37:04.090Z,98326.44
2022-12-23T21:42:06.503Z,98332.50
2022-12-23T21:47:08.180Z,98317.06
2022-12-23T21:52:10.221Z,98328.38
2022-12-23T21:57:11.864Z,98317.91
2022-12-23T22:02:16.733Z,98321.16
2022-12-23T22:07:18.431Z,98320.78
2022-12-23T22:12:20.053Z,98314.16
2022-12-23T22:17:21.702Z,98331.91
2022-12-23T22:22:23.337Z,98336.13
2022-12-23T22:27:24.941Z,98334.69
2022-12-23T22:32:26.563Z,98344.81
2022-12-23T22:37:28.166Z,98367.75
2022-12-23T22:42:29.842Z,98391.34
2022-12-23T22:47:32.041Z,98384.09
2022-12-23T22:52:33.660Z,98396.72
2022-12-23T22:57:35.350Z,98381.22
2022-12-23T23:02:36.973Z,98395.28
2022-12-23T23:07:38.876Z,98408.28
2022-12-23T23:12:41.129Z,98426.06
2022-12-23T23:17:42.757Z,98431.44
2022-12-23T23:22:44.661Z,98429.19
2022-12-23T23:27:46.327Z,98432.50
2022-12-23T23:32:48.036Z,98459.38
2022-12-23T23:37:49.756Z,98451.13
2022-12-23T23:42:51.407Z,98451.94
2022-12-23T23:47:54.765Z,98454.03
2022-12-23T23:52:56.373Z,98442.63
2022-12-23T23:57:58.103Z,98442.22
